UAL388 KEWR-EGLL
Flight info
| Callsign | UAL388 |
|---|---|
| Flight time | N/A |
| Altitude | 35000 |
| Route | DCT MERIT DCT HFD DCT PUT DCT TUSKY DCT YHZ Q846 NOTOP DCT JOOPY/M084F360 NATV BEXET/N0481F370 DCT DEVOL DCT RINUS DCT LIFFY UL975 MALUD Q38 NUGRA NUGRA1H |
| Aircraft | B77W/H-SDE1E2E3FGHIJ2J3J4J5M1RWXY/LB1D1 |
Departure
| Time | 2026-05-03 21:32 |
|---|---|
| Airport | Newark Liberty International Airport (KEWR) |
Arrival
| Time | N/A |
|---|---|
| Airport | London Heathrow Airport (EGLL) |
| Time | Latitude | Longitude | Altitude | Speed | Heading |
|---|---|---|---|---|---|
| 2026-05-03 21:05 | 40.69687 | -74.17682 | 45 ft | 0 kts | 165° |
| 2026-05-03 21:16 | 40.69698 | -74.17686 | 27 ft | 4 kts | 159° |
| 2026-05-03 21:16 | 40.69719 | -74.17703 | 26 ft | 4 kts | 111° |
| 2026-05-03 21:16 | 40.69723 | -74.17715 | 26 ft | 3 kts | 9° |
| 2026-05-03 21:17 | 40.69721 | -74.17716 | 26 ft | 0 kts | 6° |
| 2026-05-03 21:20 | 40.69733 | -74.17713 | 25 ft | 5 kts | 7° |
| 2026-05-03 21:20 | 40.69782 | -74.17695 | 27 ft | 8 kts | 32° |
| 2026-05-03 21:21 | 40.69805 | -74.17671 | 27 ft | 0 kts | 38° |
| 2026-05-03 21:23 | 40.69824 | -74.17651 | 27 ft | 7 kts | 40° |
| 2026-05-03 21:23 | 40.69879 | -74.17591 | 27 ft | 14 kts | 39° |
| 2026-05-03 21:23 | 40.69929 | -74.17522 | 27 ft | 4 kts | 45° |
| 2026-05-03 21:24 | 40.69950 | -74.17495 | 27 ft | 4 kts | 45° |
| 2026-05-03 21:24 | 40.69970 | -74.17468 | 27 ft | 4 kts | 44° |
| 2026-05-03 21:24 | 40.69991 | -74.17441 | 27 ft | 4 kts | 45° |
| 2026-05-03 21:24 | 40.70017 | -74.17406 | 27 ft | 8 kts | 47° |
| 2026-05-03 21:25 | 40.70038 | -74.17312 | 27 ft | 15 kts | 87° |
| 2026-05-03 21:25 | 40.70031 | -74.17188 | 27 ft | 10 kts | 96° |
| 2026-05-03 21:25 | 40.70024 | -74.17099 | 27 ft | 11 kts | 96° |
| 2026-05-03 21:25 | 40.70014 | -74.16970 | 27 ft | 9 kts | 96° |
| 2026-05-03 21:26 | 40.70007 | -74.16874 | 27 ft | 12 kts | 95° |
| 2026-05-03 21:26 | 40.70003 | -74.16774 | 27 ft | 9 kts | 93° |
| 2026-05-03 21:26 | 40.70001 | -74.16750 | 27 ft | 6 kts | 94° |
| 2026-05-03 21:26 | 40.69999 | -74.16705 | 27 ft | 3 kts | 94° |
| 2026-05-03 21:27 | 40.69996 | -74.16650 | 26 ft | 0 kts | 94° |
| 2026-05-03 21:28 | 40.69996 | -74.16648 | 26 ft | 2 kts | 95° |
| 2026-05-03 21:28 | 40.69991 | -74.16595 | 26 ft | 9 kts | 95° |
| 2026-05-03 21:28 | 40.70008 | -74.16546 | 28 ft | 7 kts | 48° |
| 2026-05-03 21:29 | 40.70032 | -74.16523 | 28 ft | 0 kts | 28° |
| 2026-05-03 21:30 | 40.70035 | -74.16521 | 28 ft | 3 kts | 28° |
| 2026-05-03 21:30 | 40.70053 | -74.16502 | 27 ft | 3 kts | 52° |
| 2026-05-03 21:30 | 40.70062 | -74.16451 | 26 ft | 9 kts | 85° |
| 2026-05-03 21:31 | 40.70057 | -74.16372 | 28 ft | 4 kts | 117° |
| 2026-05-03 21:31 | 40.70029 | -74.16367 | 27 ft | 6 kts | 192° |
| 2026-05-03 21:31 | 40.69964 | -74.16402 | 28 ft | 13 kts | 206° |
| 2026-05-03 21:31 | 40.69864 | -74.16467 | 28 ft | 18 kts | 206° |
| 2026-05-03 21:32 | 40.69604 | -74.16649 | 28 ft | 87 kts | 213° |
| 2026-05-03 21:32 | 40.68834 | -74.17172 | 29 ft | 162 kts | 200° |
| 2026-05-03 21:32 | 40.67531 | -74.17894 | 276 ft | 234 kts | 207° |
| 2026-05-03 21:32 | 40.66455 | -74.18447 | 1074 ft | 250 kts | 205° |
| 2026-05-03 21:33 | 40.66386 | -74.18482 | 1145 ft | 249 kts | 205° |
| 2026-05-03 21:33 | 40.64791 | -74.19229 | 2981 ft | 243 kts | 198° |
| 2026-05-03 21:33 | 40.63086 | -74.19432 | 3786 ft | 249 kts | 194° |
| 2026-05-03 21:33 | 40.61541 | -74.20340 | 4344 ft | 244 kts | 221° |
| 2026-05-03 21:34 | 40.60173 | -74.21718 | 5089 ft | 250 kts | 223° |
| 2026-05-03 21:34 | 40.58791 | -74.23133 | 5936 ft | 254 kts | 224° |
| 2026-05-03 21:34 | 40.57392 | -74.24584 | 6619 ft | 265 kts | 224° |
| 2026-05-03 21:34 | 40.55891 | -74.26101 | 7410 ft | 271 kts | 223° |
| 2026-05-03 21:35 | 40.54356 | -74.27584 | 8248 ft | 276 kts | 222° |
| 2026-05-03 21:35 | 40.52795 | -74.29044 | 9101 ft | 281 kts | 222° |
| 2026-05-03 21:35 | 40.51182 | -74.30529 | 9929 ft | 285 kts | 221° |
| 2026-05-03 21:35 | 40.49522 | -74.32037 | 10574 ft | 298 kts | 220° |
| 2026-05-03 21:36 | 40.47716 | -74.33611 | 10780 ft | 325 kts | 218° |
| 2026-05-03 21:36 | 40.45699 | -74.35235 | 11008 ft | 353 kts | 216° |
| 2026-05-03 21:36 | 40.44256 | -74.36325 | 11229 ft | 367 kts | 214° |
| 2026-05-03 21:36 | 40.41996 | -74.37991 | 11929 ft | 377 kts | 214° |
| 2026-05-03 21:37 | 40.39698 | -74.39710 | 12748 ft | 383 kts | 215° |
| 2026-05-03 21:37 | 40.37387 | -74.41482 | 13700 ft | 386 kts | 215° |
| 2026-05-03 21:37 | 40.34325 | -74.43926 | 14809 ft | 390 kts | 218° |
| 2026-05-03 21:37 | 40.32067 | -74.45880 | 15190 ft | 391 kts | 215° |
| 2026-05-03 21:38 | 40.30466 | -74.47076 | 15865 ft | 396 kts | 206° |
| 2026-05-03 21:38 | 40.27861 | -74.48347 | 16059 ft | 401 kts | 210° |
| 2026-05-03 21:38 | 40.25592 | -74.50326 | 16583 ft | 395 kts | 228° |
| 2026-05-03 21:38 | 40.23587 | -74.52843 | 17522 ft | 394 kts | 230° |
| 2026-05-03 21:39 | 40.21576 | -74.55306 | 18415 ft | 397 kts | 228° |
| 2026-05-03 21:39 | 40.19483 | -74.57710 | 19145 ft | 403 kts | 226° |
| 2026-05-03 21:39 | 40.18068 | -74.59241 | 19654 ft | 404 kts | 225° |
| 2026-05-03 21:40 | 40.17418 | -74.59929 | 19854 ft | 406 kts | 225° |
| 2026-05-03 21:40 | 40.16723 | -74.60657 | 20079 ft | 407 kts | 225° |
| 2026-05-03 21:43 | 40.15995 | -74.61414 | 20281 ft | 409 kts | 225° |
| 2026-05-03 21:44 | 40.15077 | -74.62358 | 20548 ft | 410 kts | 225° |
| 2026-05-03 21:44 | 40.14645 | -74.62797 | 20675 ft | 411 kts | 225° |
| 2026-05-03 21:44 | 40.14221 | -74.63221 | 20798 ft | 412 kts | 224° |
| 2026-05-03 21:44 | 40.12254 | -74.65153 | 21344 ft | 416 kts | 223° |
| 2026-05-03 21:47 | 40.10397 | -74.66929 | 21888 ft | 419 kts | 223° |
| 2026-05-03 21:47 | 40.09311 | -74.67957 | 22245 ft | 419 kts | 223° |
| 2026-05-03 21:47 | 40.08273 | -74.68938 | 22571 ft | 420 kts | 223° |
| 2026-05-03 21:48 | 40.05849 | -74.71247 | 23298 ft | 422 kts | 223° |
| 2026-05-03 21:48 | 40.03458 | -74.73524 | 23863 ft | 426 kts | 223° |
| 2026-05-03 21:48 | 40.01026 | -74.75776 | 24378 ft | 431 kts | 222° |
| 2026-05-03 21:48 | 39.98537 | -74.77987 | 24905 ft | 434 kts | 221° |
| 2026-05-03 21:49 | 39.96009 | -74.80177 | 25450 ft | 437 kts | 221° |
| 2026-05-03 21:49 | 39.93478 | -74.82390 | 25945 ft | 440 kts | 221° |
| 2026-05-03 21:49 | 39.90951 | -74.84577 | 26429 ft | 443 kts | 220° |
| 2026-05-03 21:49 | 39.88370 | -74.86784 | 26992 ft | 442 kts | 221° |
| 2026-05-03 21:50 | 39.85816 | -74.89041 | 27520 ft | 443 kts | 221° |
| 2026-05-03 21:50 | 39.83246 | -74.91319 | 27961 ft | 447 kts | 221° |
| 2026-05-03 21:50 | 39.80649 | -74.93568 | 28368 ft | 451 kts | 220° |
| 2026-05-03 21:50 | 39.78030 | -74.95831 | 28788 ft | 453 kts | 220° |
| 2026-05-03 21:51 | 39.75400 | -74.98103 | 29168 ft | 456 kts | 220° |
| 2026-05-03 21:51 | 39.72730 | -75.00366 | 29552 ft | 458 kts | 220° |
| 2026-05-03 21:51 | 39.70038 | -75.02610 | 29908 ft | 461 kts | 220° |
| 2026-05-03 21:51 | 39.67361 | -75.04892 | 30272 ft | 460 kts | 220° |
| 2026-05-03 21:52 | 39.64741 | -75.07191 | 30663 ft | 458 kts | 222° |
| 2026-05-03 21:52 | 39.64619 | -75.07302 | 30682 ft | 457 kts | 222° |
| 2026-05-03 21:52 | 39.61635 | -75.10234 | 31152 ft | 453 kts | 225° |
| 2026-05-03 21:53 | 39.59208 | -75.12820 | 31524 ft | 451 kts | 227° |
| 2026-05-03 21:53 | 39.56807 | -75.15462 | 31896 ft | 450 kts | 227° |
| 2026-05-03 21:53 | 39.54433 | -75.18092 | 32267 ft | 446 kts | 229° |
| 2026-05-03 21:53 | 39.52429 | -75.21083 | 32424 ft | 435 kts | 245° |
| 2026-05-03 21:54 | 39.51304 | -75.24632 | 32801 ft | 423 kts | 260° |
| 2026-05-03 21:54 | 39.50875 | -75.28369 | 33233 ft | 416 kts | 269° |
| 2026-05-03 21:54 | 39.50939 | -75.32059 | 33590 ft | 414 kts | 277° |
| 2026-05-03 21:54 | 39.51401 | -75.35753 | 33904 ft | 414 kts | 283° |
| 2026-05-03 21:55 | 39.52279 | -75.39297 | 34179 ft | 415 kts | 292° |
| 2026-05-03 21:55 | 39.53677 | -75.42583 | 34390 ft | 421 kts | 303° |
| 2026-05-03 21:55 | 39.55684 | -75.45366 | 34782 ft | 426 kts | 315° |
| 2026-05-03 21:55 | 39.58209 | -75.47468 | 34855 ft | 443 kts | 328° |
| 2026-05-03 21:56 | 39.61162 | -75.48756 | 34927 ft | 460 kts | 341° |
| 2026-05-03 21:56 | 39.64402 | -75.49185 | 34975 ft | 477 kts | 353° |
| 2026-05-03 21:56 | 39.67754 | -75.48694 | 34989 ft | 492 kts | 5° |
| 2026-05-03 21:56 | 39.71037 | -75.47281 | 35013 ft | 503 kts | 17° |
| 2026-05-03 21:57 | 39.74047 | -75.44951 | 34993 ft | 520 kts | 34° |
| 2026-05-03 21:57 | 39.76658 | -75.41646 | 35028 ft | 525 kts | 40° |
| 2026-05-03 21:57 | 39.81622 | -75.34601 | 34998 ft | 530 kts | 42° |
| 2026-05-03 21:58 | 39.86604 | -75.27522 | 34988 ft | 531 kts | 41° |
| 2026-05-03 21:58 | 39.91676 | -75.20518 | 34980 ft | 532 kts | 40° |
| 2026-05-03 21:59 | 39.96790 | -75.13548 | 35008 ft | 533 kts | 40° |
| 2026-05-03 21:59 | 40.01918 | -75.06550 | 34998 ft | 532 kts | 41° |
| 2026-05-03 22:00 | 40.07026 | -74.99547 | 34968 ft | 531 kts | 41° |
| 2026-05-03 22:00 | 40.12113 | -74.92548 | 34955 ft | 530 kts | 41° |
| 2026-05-03 22:01 | 40.17158 | -74.85591 | 34967 ft | 530 kts | 41° |
| 2026-05-03 22:01 | 40.22223 | -74.78592 | 34954 ft | 529 kts | 41° |
| 2026-05-03 22:02 | 40.27273 | -74.71598 | 34946 ft | 528 kts | 41° |
| 2026-05-03 22:02 | 40.32315 | -74.64598 | 34987 ft | 528 kts | 41° |
| 2026-05-03 22:03 | 40.37347 | -74.57596 | 34958 ft | 528 kts | 42° |
| 2026-05-03 22:03 | 40.42381 | -74.50575 | 34930 ft | 527 kts | 42° |
| 2026-05-03 22:04 | 40.47371 | -74.43600 | 34939 ft | 527 kts | 41° |
| 2026-05-03 22:04 | 40.52408 | -74.36569 | 34948 ft | 527 kts | 42° |
| 2026-05-03 22:05 | 40.57428 | -74.29526 | 34938 ft | 527 kts | 42° |
| 2026-05-03 22:05 | 40.62433 | -74.22473 | 34934 ft | 527 kts | 42° |
| 2026-05-03 22:06 | 40.67415 | -74.15437 | 34927 ft | 528 kts | 42° |
| 2026-05-03 22:06 | 40.72425 | -74.08349 | 34929 ft | 528 kts | 43° |
| 2026-05-03 22:07 | 40.77426 | -74.01258 | 34930 ft | 527 kts | 43° |
| 2026-05-03 22:07 | 40.82365 | -73.94239 | 34916 ft | 526 kts | 43° |
| 2026-05-03 22:08 | 40.84537 | -73.91146 | 34917 ft | 526 kts | 43° |
| 2026-05-03 22:08 | 40.89293 | -73.84363 | 34922 ft | 526 kts | 43° |
| 2026-05-03 22:09 | 40.94260 | -73.77263 | 34899 ft | 525 kts | 43° |
| 2026-05-03 22:10 | 40.96637 | -73.73858 | 34898 ft | 524 kts | 43° |
| 2026-05-03 22:10 | 40.97126 | -73.73158 | 34895 ft | 524 kts | 43° |
| 2026-05-03 22:11 | 40.98260 | -73.71533 | 34896 ft | 524 kts | 43° |
| 2026-05-03 22:11 | 41.01384 | -73.67049 | 34898 ft | 523 kts | 43° |
| 2026-05-03 22:12 | 41.06319 | -73.59955 | 34889 ft | 523 kts | 43° |
| 2026-05-03 22:12 | 41.11243 | -73.52859 | 34914 ft | 522 kts | 43° |
| 2026-05-03 22:13 | 41.16133 | -73.45795 | 34903 ft | 522 kts | 43° |
| 2026-05-03 22:13 | 41.21049 | -73.38676 | 34915 ft | 523 kts | 43° |
| 2026-05-03 22:14 | 41.25955 | -73.31553 | 34908 ft | 522 kts | 44° |
| 2026-05-03 22:14 | 41.30866 | -73.24407 | 34897 ft | 523 kts | 44° |
| 2026-05-03 22:15 | 41.35771 | -73.17252 | 34894 ft | 523 kts | 44° |
| 2026-05-03 22:15 | 41.40175 | -73.09576 | 34927 ft | 528 kts | 56° |
| 2026-05-03 22:16 | 41.43865 | -73.01088 | 34920 ft | 529 kts | 57° |
| 2026-05-03 22:16 | 41.47532 | -72.92588 | 34891 ft | 528 kts | 57° |
| 2026-05-03 22:17 | 41.51235 | -72.84129 | 34903 ft | 527 kts | 57° |
| 2026-05-03 22:17 | 41.54945 | -72.75684 | 34901 ft | 527 kts | 57° |
| 2026-05-03 22:18 | 41.58648 | -72.67222 | 34894 ft | 527 kts | 57° |
| 2026-05-03 22:18 | 41.62312 | -72.58815 | 34886 ft | 527 kts | 57° |
| 2026-05-03 22:19 | 41.66015 | -72.50369 | 34889 ft | 527 kts | 56° |
| 2026-05-03 22:19 | 41.69813 | -72.41969 | 34895 ft | 527 kts | 56° |
| 2026-05-03 22:20 | 41.73618 | -72.33564 | 34888 ft | 527 kts | 56° |
| 2026-05-03 22:20 | 41.77405 | -72.25129 | 34884 ft | 527 kts | 56° |
| 2026-05-03 22:21 | 41.81154 | -72.16733 | 34884 ft | 528 kts | 56° |
| 2026-05-03 22:21 | 41.84921 | -72.08276 | 34894 ft | 529 kts | 57° |
| 2026-05-03 22:22 | 41.88693 | -71.99785 | 34886 ft | 529 kts | 57° |
| 2026-05-03 22:22 | 41.91818 | -71.92734 | 34871 ft | 529 kts | 57° |
| 2026-05-03 22:23 | 41.95559 | -71.84223 | 34851 ft | 529 kts | 59° |
| 2026-05-03 22:23 | 41.98864 | -71.75369 | 34864 ft | 530 kts | 62° |
| 2026-05-03 22:24 | 42.02034 | -71.66441 | 34857 ft | 529 kts | 63° |
| 2026-05-03 22:24 | 42.05210 | -71.57501 | 34849 ft | 529 kts | 62° |
| 2026-05-03 22:25 | 42.08396 | -71.48589 | 34849 ft | 528 kts | 63° |
| 2026-05-03 22:25 | 42.11587 | -71.39669 | 34857 ft | 529 kts | 63° |
| 2026-05-03 22:26 | 42.14775 | -71.30728 | 34839 ft | 529 kts | 63° |
| 2026-05-03 22:26 | 42.17959 | -71.21765 | 34830 ft | 530 kts | 63° |
| 2026-05-03 22:27 | 42.21115 | -71.12848 | 34844 ft | 530 kts | 63° |
| 2026-05-03 22:27 | 42.24286 | -71.03862 | 34868 ft | 530 kts | 63° |
| 2026-05-03 22:27 | 42.25842 | -70.99444 | 35018 ft | 523 kts | 64° |
| 2026-05-03 22:28 | 42.27409 | -70.94984 | 34898 ft | 527 kts | 63° |
| 2026-05-03 22:28 | 42.30555 | -70.86007 | 34800 ft | 528 kts | 63° |
| 2026-05-03 22:29 | 42.33690 | -70.77038 | 34807 ft | 527 kts | 63° |
| 2026-05-03 22:29 | 42.36789 | -70.68140 | 34808 ft | 526 kts | 63° |
| 2026-05-03 22:30 | 42.39902 | -70.59176 | 34811 ft | 526 kts | 64° |
| 2026-05-03 22:30 | 42.43006 | -70.50206 | 34795 ft | 526 kts | 64° |
| 2026-05-03 22:31 | 42.46107 | -70.41216 | 34807 ft | 527 kts | 64° |
| 2026-05-03 22:31 | 42.49209 | -70.32196 | 34802 ft | 528 kts | 64° |
| 2026-05-03 22:32 | 42.52282 | -70.23229 | 34808 ft | 528 kts | 64° |